Akk, Virginia
Current Conditions -  °F | °C
As of 12:55 AM on Thursday 23 Oct 2014 (Local Time) from KFYJ Reporting Station
Overcast Overcast  
Wind Chill: 56°   Ceiling: 4000
Heat Index: 56°   Visibility: 10mi
Dew Point: 43°   Wind: 8mph
Humidity: 63%   Direction: 310°NW
Pressure: 29.93"   Gusts: 17mph
Location:  37.4383°N, 76.5764°W
Report Text: KFYJ 230455Z AUTO 31007G15KT 10SM BKN040 OVC050 13/06 A2993 RMK AO2 T01320062
Loading
Personal Weather Stations






























Interactive Weather Map
Tropical Storm Tracking
New forecast layout! Learn more

10-Day Weather Forecast

Advertisements
Track Severe Weather on mobile